createdAt,value
2023-03-05T00:04:44.461Z,1015.62
2023-03-05T00:14:49.665Z,1015.57
2023-03-05T00:24:55.324Z,1015.49
2023-03-05T00:35:00.645Z,1015.34
2023-03-05T00:45:06.085Z,1015.18
2023-03-05T00:55:11.353Z,1015.00
2023-03-05T01:05:16.574Z,1014.85
2023-03-05T01:15:21.514Z,1014.75
2023-03-05T01:25:26.944Z,1014.66
2023-03-05T01:35:32.207Z,1014.61
2023-03-05T01:45:37.402Z,1014.40
2023-03-05T01:55:42.721Z,1014.42
2023-03-05T02:05:49.132Z,1014.39
2023-03-05T02:15:54.778Z,1014.35
2023-03-05T02:26:00.138Z,1014.19
2023-03-05T02:36:05.889Z,1014.13
2023-03-05T02:46:11.034Z,1014.02
2023-03-05T02:56:16.421Z,1013.92
2023-03-05T03:06:21.746Z,1013.82
2023-03-05T03:16:26.703Z,1013.76
2023-03-05T03:26:31.815Z,1013.64
2023-03-05T03:36:37.256Z,1013.50
2023-03-05T03:46:42.616Z,1013.41
2023-03-05T03:56:47.609Z,1013.37
2023-03-05T04:06:52.857Z,1013.24
2023-03-05T04:16:58.108Z,1013.18
2023-03-05T04:27:04.823Z,1013.10
2023-03-05T04:37:10.661Z,1013.10
2023-03-05T04:47:15.766Z,1012.93
2023-03-05T04:57:23.089Z,1012.91
2023-03-05T05:07:28.281Z,1012.90
2023-03-05T05:17:33.769Z,1012.87
2023-03-05T05:27:38.845Z,1012.87
2023-03-05T05:37:43.999Z,1012.87
2023-03-05T05:47:49.129Z,1012.87
2023-03-05T05:57:54.468Z,1012.93
2023-03-05T06:07:59.754Z,1012.97
2023-03-05T06:18:04.843Z,1012.90
2023-03-05T06:28:10.018Z,1012.78
2023-03-05T06:38:15.223Z,1012.75
2023-03-05T06:48:20.318Z,1012.80
2023-03-05T06:58:25.480Z,1012.75
2023-03-05T07:08:30.501Z,1012.86
2023-03-05T07:18:35.918Z,1012.84
2023-03-05T07:28:41.226Z,1012.98
2023-03-05T07:38:47.418Z,1012.85
2023-03-05T07:48:52.740Z,1012.93
2023-03-05T07:58:57.803Z,1012.83
2023-03-05T08:09:05.339Z,1012.86
2023-03-05T08:19:10.506Z,1012.82
2023-03-05T08:29:15.707Z,1012.72
2023-03-05T08:39:21.609Z,1012.59
2023-03-05T08:49:27.059Z,1012.58
2023-03-05T08:59:32.715Z,1012.41
2023-03-05T09:09:37.835Z,1012.37
2023-03-05T09:19:42.885Z,1012.30
2023-03-05T09:29:48.233Z,1012.31
2023-03-05T09:39:53.943Z,1012.23
2023-03-05T09:49:59.475Z,1012.05
2023-03-05T10:00:05.250Z,1012.00
2023-03-05T10:10:10.624Z,1011.90
2023-03-05T10:20:16.081Z,1011.97
2023-03-05T10:30:21.364Z,1011.85
2023-03-05T10:40:27.308Z,1011.80
2023-03-05T10:50:32.533Z,1011.89
2023-03-05T11:00:38.271Z,1011.71
2023-03-05T11:10:43.690Z,1011.59
2023-03-05T11:20:48.955Z,1011.64
2023-03-05T11:30:54.634Z,1011.55
2023-03-05T11:40:59.936Z,1011.38
2023-03-05T11:51:05.706Z,1011.30
2023-03-05T12:01:10.778Z,1011.07
2023-03-05T12:11:16.354Z,1011.07
2023-03-05T12:21:21.945Z,1010.99
2023-03-05T12:31:27.889Z,1010.85
2023-03-05T12:41:33.175Z,1010.71
2023-03-05T12:51:38.747Z,1010.65
2023-03-05T13:01:44.501Z,1010.59
2023-03-05T13:11:49.821Z,1010.54
2023-03-05T13:21:55.193Z,1010.43
2023-03-05T13:32:01.029Z,1010.39
2023-03-05T13:42:06.602Z,1010.36
2023-03-05T13:52:12.075Z,1010.27
2023-03-05T14:02:18.063Z,1010.20
2023-03-05T14:12:23.470Z,1010.20
2023-03-05T14:22:28.992Z,1010.23
2023-03-05T14:32:34.317Z,1010.18
2023-03-05T14:42:39.664Z,1010.15
2023-03-05T14:52:44.946Z,1010.08
2023-03-05T15:02:50.363Z,1009.93
2023-03-05T15:12:55.645Z,1009.91
2023-03-05T15:23:01.033Z,1009.83
2023-03-05T15:33:06.094Z,1009.74
2023-03-05T15:43:11.278Z,1009.70
2023-03-05T15:53:16.789Z,1009.70
2023-03-05T16:03:22.006Z,1009.67
2023-03-05T16:13:27.033Z,1009.64
2023-03-05T16:23:32.606Z,1009.57
2023-03-05T16:33:38.148Z,1009.55
2023-03-05T16:43:43.342Z,1009.56
2023-03-05T16:53:48.332Z,1009.50
2023-03-05T17:03:53.856Z,1009.48
2023-03-05T17:13:59.238Z,1009.63
2023-03-05T17:25:24.503Z,1009.62
2023-03-05T17:35:29.067Z,1009.61
2023-03-05T17:45:34.374Z,1009.62
2023-03-05T17:55:39.817Z,1009.54
2023-03-05T18:05:45.266Z,1009.39
2023-03-05T18:15:51.381Z,1009.33
2023-03-05T18:25:57.025Z,1009.38
2023-03-05T18:36:02.790Z,1009.34
2023-03-05T18:46:08.111Z,1009.26
2023-03-05T18:56:13.534Z,1009.22
2023-03-05T19:06:18.660Z,1009.20
2023-03-05T19:16:24.397Z,1009.05
2023-03-05T19:26:29.889Z,1009.04
2023-03-05T19:36:35.359Z,1009.06
2023-03-05T19:46:41.011Z,1008.97
2023-03-05T19:56:47.290Z,1008.94
2023-03-05T20:06:52.746Z,1008.88
2023-03-05T20:16:58.014Z,1008.86
2023-03-05T20:27:03.586Z,1008.79
2023-03-05T20:37:08.958Z,1008.70
2023-03-05T20:47:14.108Z,1008.63
2023-03-05T20:57:19.276Z,1008.42
2023-03-05T21:07:24.513Z,1008.40
2023-03-05T21:17:30.467Z,1008.32
2023-03-05T21:27:36.386Z,1008.19
2023-03-05T21:39:01.309Z,1008.10
2023-03-05T21:49:05.513Z,1008.00
2023-03-05T21:59:10.586Z,1007.81
2023-03-05T22:09:15.544Z,1007.67
2023-03-05T22:19:21.615Z,1007.59
2023-03-05T22:29:26.620Z,1007.41
2023-03-05T22:39:31.820Z,1007.28
2023-03-05T22:49:36.958Z,1007.15
2023-03-05T22:59:42.018Z,1007.03
2023-03-05T23:09:47.235Z,1006.89
2023-03-05T23:19:52.576Z,1006.81
2023-03-05T23:29:57.678Z,1006.68
2023-03-05T23:40:03.869Z,1006.63
2023-03-05T23:50:09.138Z,1006.65
